Time;durP1;ratioP1;P1;durP2;ratioP2;P2;SDS_P1;SDS_P2;PMS_P1;PMS_P2;Temp;Humidity;BMP_temperature;BMP_pressure;BME280_temperature;BME280_humidity;BME280_pressure;Samples;Min_cycle;Max_cycle;Signal;HPM_P1;HPM_P2
2022/08/22 00:00:31;;;;;;;5.60;5.20;;;16.80;99.90;;;;;;5136330;27;20484;-59
2022/08/22 00:03:14;;;;;;;5.13;4.73;;;16.80;99.90;;;;;;5136541;27;20439;-59
2022/08/22 00:05:51;;;;;;;7.13;6.37;;;16.80;99.90;;;;;;5136659;27;20555;-59
2022/08/22 00:08:27;;;;;;;5.60;5.07;;;16.30;99.90;;;;;;5136593;27;20800;-59
2022/08/22 00:10:59;;;;;;;5.17;4.80;;;15.90;99.90;;;;;;5136449;27;20791;-59
2022/08/22 00:13:33;;;;;;;6.73;5.20;;;16.10;99.90;;;;;;5136288;27;20441;-59
2022/08/22 00:16:07;;;;;;;5.00;4.70;;;16.20;99.90;;;;;;5136512;27;20447;-59
2022/08/22 00:18:42;;;;;;;5.30;4.90;;;16.20;99.90;;;;;;5136352;27;20439;-59
2022/08/22 00:21:13;;;;;;;4.57;4.13;;;16.20;99.90;;;;;;5136220;27;20486;-59
2022/08/22 00:23:45;;;;;;;4.97;4.33;;;16.40;99.90;;;;;;5136075;27;20455;-59
2022/08/22 00:26:22;;;;;;;4.53;4.23;;;16.40;99.90;;;;;;5136009;27;20444;-59
2022/08/22 00:28:56;;;;;;;4.27;4.03;;;16.50;99.90;;;;;;5136530;27;20455;-59
2022/08/22 00:31:30;;;;;;;5.83;5.37;;;16.50;99.90;;;;;;5136061;27;20448;-59
2022/08/22 00:34:02;;;;;;;6.00;5.40;;;16.30;99.90;;;;;;5136223;27;20445;-59
2022/08/22 00:36:35;;;;;;;4.83;4.53;;;16.00;99.90;;;;;;5135882;27;20449;-61
2022/08/22 00:39:10;;;;;;;5.23;4.80;;;15.90;99.90;;;;;;5135873;27;20471;-61
2022/08/22 00:42:00;;;;;;;5.00;4.43;;;15.90;99.90;;;;;;5136184;27;20472;-61
2022/08/22 00:44:56;;;;;;;5.43;4.60;;;15.90;99.90;;;;;;5122225;27;20562;-61
2022/08/22 00:47:43;;;;;;;4.43;4.07;;;15.80;99.90;;;;;;5135527;27;20979;-59
2022/08/22 00:50:40;;;;;;;5.20;4.70;;;15.90;99.90;;;;;;5135749;27;20876;-59
2022/08/22 00:53:31;;;;;;;4.10;3.90;;;16.00;99.90;;;;;;5135433;27;20444;-59
2022/08/22 00:56:12;;;;;;;5.67;4.83;;;16.00;99.90;;;;;;5135540;27;20436;-59
2022/08/22 00:58:57;;;;;;;4.57;4.10;;;16.00;99.90;;;;;;5135393;27;20440;-60
2022/08/22 01:01:32;;;;;;;6.10;4.87;;;15.90;99.90;;;;;;5135258;27;20512;-59
2022/08/22 01:04:16;;;;;;;6.40;4.47;;;15.90;99.90;;;;;;5135888;27;20450;-59
2022/08/22 01:06:58;;;;;;;5.07;4.57;;;16.00;99.90;;;;;;5135394;27;20803;-59
2022/08/22 01:09:40;;;;;;;5.10;4.70;;;16.00;99.90;;;;;;5135229;27;20440;-59
2022/08/22 01:12:23;;;;;;;4.77;4.40;;;15.90;99.90;;;;;;5134491;27;20479;-59
2022/08/22 01:14:55;;;;;;;5.23;4.83;;;15.80;99.90;;;;;;5135289;27;20505;-59
2022/08/22 01:17:54;;;;;;;5.30;4.60;;;15.70;99.90;;;;;;5135197;27;20531;-59
2022/08/22 01:20:39;;;;;;;4.30;3.90;;;15.60;99.90;;;;;;5101445;27;20480;-59
2022/08/22 01:23:42;;;;;;;4.90;4.57;;;15.70;99.90;;;;;;5135081;27;20803;-59
2022/08/22 01:26:45;;;;;;;5.90;4.20;;;15.80;99.90;;;;;;5127976;27;20453;-59
2022/08/22 01:29:59;;;;;;;6.30;4.50;;;16.00;99.90;;;;;;5135007;27;20806;-59
2022/08/22 01:33:14;;;;;;;4.87;4.50;;;16.00;99.90;;;;;;5051329;28;20457;-59
2022/08/22 01:36:13;;;;;;;4.23;4.03;;;15.30;99.90;;;;;;5051333;28;20547;-59
2022/08/22 01:39:03;;;;;;;5.30;4.90;;;15.00;99.90;;;;;;5133197;27;20451;-59
2022/08/22 01:41:51;;;;;;;7.00;3.97;;;15.20;99.90;;;;;;5134735;27;20625;-59
2022/08/22 01:44:34;;;;;;;4.37;4.00;;;15.40;99.90;;;;;;5134653;27;20506;-59
2022/08/22 01:47:04;;;;;;;4.80;4.40;;;15.50;99.90;;;;;;5134393;27;20472;-59
2022/08/22 01:49:39;;;;;;;5.20;4.73;;;15.60;99.90;;;;;;5134384;27;20455;-60
2022/08/22 01:52:12;;;;;;;7.60;4.43;;;15.70;99.90;;;;;;5134636;27;20448;-60
2022/08/22 01:54:47;;;;;;;4.67;4.33;;;15.80;99.90;;;;;;5134537;27;20452;-60
2022/08/22 01:57:14;;;;;;;4.50;4.20;;;15.80;99.90;;;;;;5134459;27;20539;-60
2022/08/22 01:59:43;;;;;;;5.50;4.93;;;15.80;99.90;;;;;;5134157;27;20940;-60
2022/08/22 02:02:27;;;;;;;7.00;4.60;;;15.90;99.90;;;;;;5134334;27;20449;-60
2022/08/22 02:05:00;;;;;;;6.30;4.60;;;16.00;99.90;;;;;;5134413;27;20445;-60
2022/08/22 02:07:33;;;;;;;6.30;4.03;;;16.00;99.90;;;;;;5134232;27;20441;-60
2022/08/22 02:10:10;;;;;;;3.83;3.60;;;16.00;99.90;;;;;;5134144;27;20449;-60
2022/08/22 02:12:43;;;;;;;4.37;4.10;;;16.00;99.90;;;;;;5134257;27;20448;-60
2022/08/22 02:15:21;;;;;;;4.30;4.00;;;16.10;99.90;;;;;;5134297;27;20455;-60
2022/08/22 02:18:04;;;;;;;4.00;3.80;;;15.80;99.90;;;;;;5134144;27;20452;-60
2022/08/22 02:20:43;;;;;;;4.93;4.50;;;15.60;99.90;;;;;;5133889;27;20567;-61
2022/08/22 02:23:22;;;;;;;5.03;4.53;;;15.80;99.90;;;;;;5134160;27;20965;-60
2022/08/22 02:25:54;;;;;;;4.00;3.70;;;15.90;99.90;;;;;;5134092;27;20449;-60
2022/08/22 02:28:31;;;;;;;4.57;4.27;;;15.90;99.90;;;;;;5134006;27;20447;-60
2022/08/22 02:31:05;;;;;;;6.10;4.20;;;15.70;99.90;;;;;;5133910;28;20482;-60
2022/08/22 02:33:45;;;;;;;4.60;4.17;;;15.50;99.90;;;;;;5134071;28;20810;-60
2022/08/22 02:36:19;;;;;;;6.83;4.40;;;15.50;99.90;;;;;;5133959;28;20466;-60
2022/08/22 02:38:57;;;;;;;5.70;4.47;;;15.60;99.90;;;;;;5133870;28;20453;-60
2022/08/22 02:41:29;;;;;;;5.17;4.70;;;15.30;99.90;;;;;;5133683;28;21065;-60
2022/08/22 02:44:01;;;;;;;4.93;4.53;;;15.20;99.90;;;;;;5133988;28;20879;-60
2022/08/22 02:46:38;;;;;;;4.83;4.53;;;15.20;99.90;;;;;;5133918;28;20551;-60
2022/08/22 02:49:16;;;;;;;4.40;4.10;;;15.00;99.90;;;;;;5133785;28;20444;-60
2022/08/22 02:51:49;;;;;;;4.90;4.50;;;15.00;99.90;;;;;;5133649;28;20452;-60
2022/08/22 02:54:23;;;;;;;5.13;4.70;;;15.00;99.90;;;;;;5133853;28;20535;-60
2022/08/22 02:56:57;;;;;;;10.97;4.90;;;15.00;99.90;;;;;;5133804;27;20492;-60
2022/08/22 02:59:32;;;;;;;5.03;4.10;;;15.00;99.90;;;;;;5133763;28;20476;-60
2022/08/22 03:02:35;;;;;;;4.60;4.20;;;15.00;99.90;;;;;;5133485;28;20568;-60
2022/08/22 03:05:15;;;;;;;4.53;4.23;;;15.10;99.90;;;;;;5133554;27;20440;-60
2022/08/22 03:07:49;;;;;;;4.17;3.87;;;15.20;99.90;;;;;;5133883;28;20447;-60
2022/08/22 03:10:21;;;;;;;5.43;5.03;;;15.40;99.90;;;;;;5133604;28;20789;-60
2022/08/22 03:12:57;;;;;;;4.63;4.13;;;15.50;99.90;;;;;;5133307;28;20791;-60
2022/08/22 03:15:30;;;;;;;3.70;3.40;;;15.50;99.90;;;;;;5133650;28;20957;-59
2022/08/22 03:18:04;;;;;;;5.50;4.00;;;15.50;99.90;;;;;;5133445;28;20448;-59
2022/08/22 03:20:46;;;;;;;4.23;3.83;;;15.50;99.90;;;;;;5133255;27;20998;-60
2022/08/22 03:23:21;;;;;;;4.23;3.83;;;15.30;99.90;;;;;;5133328;28;20450;-60
2022/08/22 03:25:58;;;;;;;3.90;3.50;;;15.20;99.90;;;;;;5133548;28;20538;-60
2022/08/22 03:28:30;;;;;;;3.83;3.53;;;15.00;99.90;;;;;;5133495;27;20471;-60
2022/08/22 03:31:00;;;;;;;4.53;4.10;;;15.00;99.90;;;;;;5133372;28;20492;-60
2022/08/22 03:33:29;;;;;;;4.57;4.17;;;15.00;99.90;;;;;;5133462;28;20450;-60
2022/08/22 03:36:06;;;;;;;5.40;4.40;;;14.90;99.90;;;;;;5136332;27;20429;-60
2022/08/22 03:39:02;;;;;;;5.57;5.07;;;14.80;99.90;;;;;;5137220;27;20939;-60
2022/08/22 03:41:48;;;;;;;4.60;4.20;;;14.90;99.90;;;;;;5136827;27;20472;-60
2022/08/22 03:44:47;;;;;;;6.43;4.40;;;14.70;99.90;;;;;;5136803;27;20454;-59
2022/08/22 03:47:31;;;;;;;4.67;4.37;;;14.50;99.90;;;;;;5101735;27;20468;-60
2022/08/22 03:50:24;;;;;;;5.20;4.80;;;14.30;99.90;;;;;;5136818;27;20509;-60
2022/08/22 03:53:31;;;;;;;10.10;4.27;;;14.20;99.90;;;;;;5136846;27;20451;-60
2022/08/22 03:56:48;;;;;;;8.60;4.93;;;14.30;99.90;;;;;;5136761;27;20451;-60
2022/08/22 03:59:46;;;;;;;4.90;4.60;;;14.40;99.90;;;;;;5136809;27;20924;-60
2022/08/22 04:02:36;;;;;;;6.03;5.10;;;14.20;99.90;;;;;;5136362;27;21044;-60
2022/08/22 04:05:37;;;;;;;5.40;4.43;;;14.20;99.90;;;;;;5136708;27;20440;-59
2022/08/22 04:08:23;;;;;;;5.07;4.70;;;14.40;99.90;;;;;;5136550;27;20450;-60
2022/08/22 04:11:26;;;;;;;4.47;4.17;;;14.60;99.90;;;;;;5136389;27;20448;-60
2022/08/22 04:14:17;;;;;;;5.00;4.37;;;14.80;99.90;;;;;;5122580;27;20814;-60
2022/08/22 04:17:19;;;;;;;6.43;4.23;;;15.00;99.90;;;;;;5099121;27;20452;-60
2022/08/22 04:20:20;;;;;;;6.53;4.07;;;15.10;99.90;;;;;;5101698;27;20444;-60
2022/08/22 04:23:12;;;;;;;4.00;3.60;;;15.30;99.90;;;;;;5136217;27;20455;-60
2022/08/22 04:25:42;;;;;;;10.23;4.80;;;15.40;99.90;;;;;;5135993;27;20868;-60
2022/08/22 04:28:16;;;;;;;4.17;3.87;;;15.40;99.90;;;;;;5136309;27;20799;-60
2022/08/22 04:30:47;;;;;;;3.77;3.20;;;15.40;99.90;;;;;;5136018;27;20445;-60
2022/08/22 04:33:20;;;;;;;6.00;4.50;;;15.50;99.90;;;;;;5135976;27;20451;-59
2022/08/22 04:36:00;;;;;;;10.33;4.07;;;15.50;99.90;;;;;;5135865;27;20445;-60
2022/08/22 04:38:33;;;;;;;5.00;4.57;;;15.60;99.90;;;;;;5136057;27;20441;-59
2022/08/22 04:41:07;;;;;;;7.00;3.90;;;15.70;99.90;;;;;;5135842;27;20564;-60
2022/08/22 04:43:39;;;;;;;6.80;3.70;;;15.70;99.90;;;;;;5135601;27;20450;-60
2022/08/22 04:46:13;;;;;;;4.07;3.77;;;15.70;99.90;;;;;;5134999;27;20455;-60
2022/08/22 04:48:45;;;;;;;5.07;4.00;;;15.80;99.90;;;;;;5135456;27;20476;-60
2022/08/22 04:51:20;;;;;;;5.40;4.10;;;15.90;99.90;;;;;;5135929;27;20988;-60
2022/08/22 04:54:10;;;;;;;11.67;4.43;;;15.90;99.90;;;;;;5135625;27;20531;-60
2022/08/22 04:56:48;;;;;;;11.23;6.13;;;16.00;99.90;;;;;;5135448;27;20441;-60
2022/08/22 04:59:17;;;;;;;8.63;4.10;;;16.20;99.90;;;;;;5135320;27;20788;-60
2022/08/22 05:01:47;;;;;;;5.97;4.30;;;16.30;99.90;;;;;;5135302;27;20575;-60
2022/08/22 05:04:18;;;;;;;5.47;4.93;;;15.80;99.90;;;;;;5135926;27;20451;-60
2022/08/22 05:06:50;;;;;;;4.80;4.40;;;15.30;99.90;;;;;;5135370;27;20713;-60
2022/08/22 05:09:22;;;;;;;5.70;4.23;;;15.30;99.90;;;;;;5135013;27;20448;-60
2022/08/22 05:11:52;;;;;;;4.50;4.10;;;15.50;99.90;;;;;;5135191;27;20455;-60
2022/08/22 05:14:24;;;;;;;6.53;5.00;;;15.50;99.90;;;;;;5135704;27;20800;-60
2022/08/22 05:16:53;;;;;;;4.40;4.13;;;15.50;99.90;;;;;;5135310;27;20449;-60
2022/08/22 05:19:27;;;;;;;7.30;5.37;;;15.70;99.90;;;;;;5135032;27;20453;-60
2022/08/22 05:21:55;;;;;;;6.10;4.43;;;15.70;99.90;;;;;;5134705;27;20491;-60
2022/08/22 05:24:28;;;;;;;5.20;4.07;;;15.70;99.90;;;;;;5134937;27;20932;-60
2022/08/22 05:26:59;;;;;;;6.20;4.20;;;15.80;99.90;;;;;;5134985;27;20535;-60
2022/08/22 05:29:29;;;;;;;6.13;4.60;;;15.80;99.90;;;;;;5134964;27;20857;-60
2022/08/22 05:32:00;;;;;;;4.83;4.20;;;15.80;99.90;;;;;;5134573;27;20470;-60
2022/08/22 05:34:32;;;;;;;4.90;4.50;;;15.90;99.90;;;;;;5134574;27;20455;-60
2022/08/22 05:37:05;;;;;;;6.77;4.70;;;16.10;99.90;;;;;;5134419;27;20936;-60
2022/08/22 05:39:34;;;;;;;12.80;4.70;;;16.10;99.90;;;;;;5134631;27;20452;-60
2022/08/22 05:42:03;;;;;;;5.00;4.50;;;16.30;99.90;;;;;;5134354;27;20484;-60
2022/08/22 05:44:33;;;;;;;7.07;5.27;;;16.30;99.90;;;;;;5134449;27;20449;-60
2022/08/22 05:47:02;;;;;;;5.23;4.73;;;16.40;99.90;;;;;;5134108;27;20476;-59
2022/08/22 05:49:35;;;;;;;5.07;4.67;;;16.60;99.90;;;;;;5134288;27;20940;-60
2022/08/22 05:52:10;;;;;;;5.67;5.17;;;16.80;99.90;;;;;;5134394;27;20890;-60
2022/08/22 05:54:50;;;;;;;7.63;5.23;;;16.90;99.90;;;;;;5134374;27;20454;-60
2022/08/22 05:57:25;;;;;;;6.23;5.40;;;17.00;99.90;;;;;;5134029;27;20544;-60
2022/08/22 05:59:59;;;;;;;6.83;5.03;;;17.10;99.90;;;;;;5134339;27;20448;-60
2022/08/22 06:02:38;;;;;;;5.60;5.00;;;17.20;99.90;;;;;;5133985;27;21062;-60
2022/08/22 06:05:06;;;;;;;8.43;5.77;;;17.30;99.90;;;;;;5134348;27;20535;-60
2022/08/22 06:07:39;;;;;;;6.63;5.20;;;17.40;99.90;;;;;;5107024;27;20446;-60
2022/08/22 06:10:21;;;;;;;8.87;5.67;;;17.40;99.90;;;;;;5093232;28;20434;-60
2022/08/22 06:12:55;;;;;;;5.77;5.10;;;17.30;99.90;;;;;;5093123;28;20442;-60
2022/08/22 06:15:27;;;;;;;6.53;5.87;;;17.50;99.90;;;;;;5097025;28;20495;-60
2022/08/22 06:17:57;;;;;;;5.87;5.27;;;17.60;99.90;;;;;;5113149;28;20940;-61
2022/08/22 06:20:27;;;;;;;9.30;6.07;;;17.70;99.90;;;;;;5113262;28;20960;-60
2022/08/22 06:22:59;;;;;;;8.23;5.90;;;17.90;99.90;;;;;;5106389;28;20485;-61
2022/08/22 06:25:30;;;;;;;6.03;5.40;;;18.00;99.90;;;;;;5098542;28;20450;-59
2022/08/22 06:28:00;;;;;;;7.03;6.37;;;18.00;99.90;;;;;;5092934;28;20450;-59
2022/08/22 06:30:29;;;;;;;8.60;6.97;;;18.00;99.90;;;;;;5093207;28;20533;-59
2022/08/22 06:33:04;;;;;;;7.80;5.87;;;18.10;99.90;;;;;;5092657;28;20443;-59
2022/08/22 06:36:29;;;;;;;8.03;6.47;;;18.10;99.90;;;;;;5093054;28;20446;-58
2022/08/22 06:38:27;;;;;;;8.20;5.80;;;18.20;99.90;;;;;;5092611;28;20530;-58
2022/08/22 06:40:56;;;;;;;7.43;6.10;;;18.30;99.90;;;;;;5092795;28;20495;-59
2022/08/22 06:43:25;;;;;;;6.53;6.03;;;18.40;99.90;;;;;;5092540;28;20492;-59
2022/08/22 06:45:52;;;;;;;6.70;6.20;;;18.40;99.90;;;;;;5092864;28;20443;-59
2022/08/22 06:48:22;;;;;;;12.07;6.70;;;18.30;99.90;;;;;;5092500;28;20463;-58
2022/08/22 06:50:53;;;;;;;9.37;6.37;;;18.50;99.90;;;;;;5092798;28;20450;-59
2022/08/22 06:53:23;;;;;;;6.97;6.33;;;18.60;99.90;;;;;;5092544;28;20472;-59
2022/08/22 06:55:55;;;;;;;10.00;6.20;;;18.60;99.90;;;;;;5092896;28;20451;-59
2022/08/22 06:58:27;;;;;;;8.63;6.37;;;18.70;99.90;;;;;;5092649;28;20491;-59
2022/08/22 07:00:56;;;;;;;10.80;6.63;;;18.80;99.90;;;;;;5092731;28;20538;-59
2022/08/22 07:03:30;;;;;;;6.10;5.50;;;18.90;99.90;;;;;;5092288;28;20453;-59
2022/08/22 07:05:57;;;;;;;7.23;6.13;;;18.80;99.90;;;;;;5092517;28;20454;-59
2022/08/22 07:08:25;;;;;;;6.33;5.20;;;18.90;99.90;;;;;;5092497;28;20474;-59
2022/08/22 07:10:58;;;;;;;6.07;5.57;;;18.80;99.90;;;;;;5095044;28;20446;-59
2022/08/22 07:13:27;;;;;;;8.37;5.40;;;18.80;99.90;;;;;;5096523;28;20871;-58
2022/08/22 07:15:56;;;;;;;5.83;5.33;;;18.70;99.90;;;;;;5096465;28;20856;-58
2022/08/22 07:18:25;;;;;;;12.73;6.10;;;18.80;99.90;;;;;;5095463;28;21026;-59
2022/08/22 07:20:54;;;;;;;7.87;6.37;;;19.00;99.90;;;;;;5099753;28;20452;-60
2022/08/22 07:23:30;;;;;;;5.33;4.93;;;19.10;99.90;;;;;;5109951;28;20492;-60
2022/08/22 07:26:09;;;;;;;5.63;5.17;;;19.30;99.90;;;;;;5097419;28;20466;-59
2022/08/22 07:28:41;;;;;;;5.80;4.50;;;19.40;99.90;;;;;;5096437;28;20541;-59
2022/08/22 07:31:15;;;;;;;5.40;4.93;;;19.50;99.90;;;;;;5107796;28;20822;-60
2022/08/22 07:33:46;;;;;;;5.10;4.70;;;19.70;99.90;;;;;;5102427;28;20893;-60
2022/08/22 07:36:24;;;;;;;5.40;4.60;;;19.60;99.90;;;;;;5116551;28;20480;-60
2022/08/22 07:39:12;;;;;;;5.40;4.30;;;19.70;99.90;;;;;;5109983;28;20947;-60
2022/08/22 07:41:55;;;;;;;5.17;4.77;;;19.80;99.90;;;;;;5106684;28;20481;-62
2022/08/22 07:44:25;;;;;;;8.43;4.40;;;19.80;99.90;;;;;;5104169;28;20883;-61
2022/08/22 07:46:59;;;;;;;5.20;4.10;;;19.80;99.90;;;;;;5100067;28;20450;-62
2022/08/22 07:49:30;;;;;;;4.80;3.97;;;19.90;99.90;;;;;;5102254;28;20809;-61
2022/08/22 07:52:01;;;;;;;3.97;3.40;;;20.00;99.90;;;;;;5110013;27;20801;-61
2022/08/22 07:54:35;;;;;;;4.00;3.70;;;20.00;99.90;;;;;;5104177;27;20446;-61
2022/08/22 07:57:08;;;;;;;4.50;3.63;;;20.10;99.90;;;;;;5095233;28;20549;-61
2022/08/22 07:59:38;;;;;;;3.90;3.60;;;20.20;99.90;;;;;;5096618;28;20442;-61
2022/08/22 08:02:10;;;;;;;6.80;2.93;;;20.50;99.90;;;;;;5100209;28;20463;-62
2022/08/22 08:04:39;;;;;;;5.07;3.33;;;20.50;99.90;;;;;;5116013;27;20858;-63
2022/08/22 08:07:09;;;;;;;4.10;3.60;;;20.60;99.90;;;;;;5118242;27;20462;-60
2022/08/22 08:09:40;;;;;;;3.70;3.20;;;20.70;99.90;;;;;;5108369;28;20527;-61
2022/08/22 08:12:11;;;;;;;3.20;2.87;;;20.80;99.90;;;;;;5120218;27;20532;-61
2022/08/22 08:14:42;;;;;;;3.00;2.77;;;20.80;99.90;;;;;;5108495;27;20457;-59
2022/08/22 08:17:16;;;;;;;4.00;3.40;;;21.00;99.90;;;;;;5095140;28;20787;-63
2022/08/22 08:19:44;;;;;;;6.20;3.50;;;21.20;99.90;;;;;;5093982;28;20477;-62
2022/08/22 08:22:16;;;;;;;4.13;2.90;;;21.20;99.90;;;;;;5111960;28;20535;-61
2022/08/22 08:24:44;;;;;;;3.27;2.97;;;21.30;99.90;;;;;;5095406;28;20461;-61
2022/08/22 08:30:04;;;;;;;3.30;3.00;;;21.50;99.90;;;;;;5099230;28;20809;-62
2022/08/22 08:32:35;;;;;;;5.17;2.53;;;21.60;99.90;;;;;;5095093;28;20457;-60
2022/08/22 08:35:08;;;;;;;4.37;2.70;;;21.80;99.90;;;;;;5107635;28;20580;-62
2022/08/22 08:37:43;;;;;;;6.83;2.90;;;21.90;99.90;;;;;;5114336;27;20960;-64
2022/08/22 08:40:32;;;;;;;2.73;2.53;;;21.60;99.90;;;;;;5129451;27;20493;-62
2022/08/22 08:43:28;;;;;;;6.40;2.50;;;21.60;99.90;;;;;;5096521;27;21023;-60
2022/08/22 08:46:33;;;;;;;2.90;2.57;;;21.40;99.90;;;;;;5099846;28;20554;-60
2022/08/22 08:49:15;;;;;;;5.53;2.93;;;21.20;99.90;;;;;;5094597;28;20555;-59
2022/08/22 08:51:53;;;;;;;4.10;2.40;;;21.50;99.90;;;;;;5094067;28;20447;-59
2022/08/22 08:54:31;;;;;;;5.03;2.37;;;21.60;99.90;;;;;;5093200;28;20446;-60
2022/08/22 08:57:08;;;;;;;2.00;1.77;;;21.60;99.90;;;;;;5094206;28;20454;-60
2022/08/22 08:59:49;;;;;;;2.87;2.33;;;21.60;99.90;;;;;;5093375;28;20457;-60
2022/08/22 09:02:29;;;;;;;3.50;2.47;;;21.60;99.90;;;;;;5094097;28;20474;-59
2022/08/22 09:05:36;;;;;;;2.30;2.10;;;21.70;99.90;;;;;;5106205;28;20450;-60
2022/08/22 09:08:30;;;;;;;2.63;1.80;;;21.80;99.90;;;;;;5094216;28;20496;-61
2022/08/22 09:11:08;;;;;;;4.33;2.07;;;22.00;99.90;;;;;;5099599;28;20456;-62
2022/08/22 09:13:54;;;;;;;10.40;3.80;;;21.90;99.90;;;;;;5092848;28;20538;-61
2022/08/22 09:16:37;;;;;;;2.03;1.83;;;21.80;99.90;;;;;;5094976;28;20461;-58
2022/08/22 09:19:26;;;;;;;2.80;2.13;;;21.90;99.90;;;;;;5108426;28;20496;-60
2022/08/22 09:22:22;;;;;;;2.30;1.83;;;21.90;99.90;;;;;;5114455;28;20449;-60
2022/08/22 09:25:18;;;;;;;5.93;2.17;;;21.90;99.90;;;;;;5114054;28;20805;-60
2022/08/22 09:27:51;;;;;;;3.53;1.70;;;22.00;99.90;;;;;;5098439;28;20463;-60
2022/08/22 09:30:21;;;;;;;2.77;2.23;;;22.00;99.90;;;;;;5094115;28;20447;-59
2022/08/22 09:32:56;;;;;;;3.70;2.10;;;22.00;99.90;;;;;;5099821;28;20455;-59
2022/08/22 09:35:33;;;;;;;5.27;2.03;;;22.00;99.90;;;;;;5102953;28;20545;-59
2022/08/22 09:38:29;;;;;;;4.73;2.07;;;22.00;99.90;;;;;;5108537;28;20452;-61
2022/08/22 09:41:05;;;;;;;4.60;2.40;;;22.30;99.90;;;;;;5098062;28;20549;-60
2022/08/22 09:43:37;;;;;;;2.80;1.93;;;22.60;99.90;;;;;;5102649;28;20492;-60
2022/08/22 09:46:14;;;;;;;2.80;2.17;;;22.70;99.90;;;;;;5093407;28;21041;-60
2022/08/22 09:49:05;;;;;;;11.80;3.33;;;22.60;99.90;;;;;;5104416;28;20914;-61
2022/08/22 09:51:39;;;;;;;3.37;1.77;;;22.50;99.90;;;;;;5101328;28;20457;-61
2022/08/22 09:54:19;;;;;;;4.23;2.40;;;22.60;99.90;;;;;;5095610;28;21056;-60
2022/08/22 09:57:01;;;;;;;2.43;1.80;;;22.60;99.90;;;;;;5093681;28;20464;-61
2022/08/22 09:59:43;;;;;;;4.80;2.17;;;22.60;99.90;;;;;;5101705;28;20474;-61
2022/08/22 10:02:27;;;;;;;2.60;1.73;;;22.70;99.90;;;;;;5094637;28;20478;-60
2022/08/22 10:05:01;;;;;;;5.93;1.80;;;22.60;99.90;;;;;;5098404;28;20457;-59
2022/08/22 10:07:37;;;;;;;4.70;2.10;;;22.70;99.90;;;;;;5104791;28;20460;-59
2022/08/22 10:10:15;;;;;;;3.50;2.10;;;22.50;99.90;;;;;;5107758;28;20980;-61
2022/08/22 10:12:51;;;;;;;4.93;1.60;;;22.40;99.90;;;;;;5113463;28;20437;-62
2022/08/22 10:15:23;;;;;;;2.40;1.73;;;22.40;99.90;;;;;;5106758;28;20457;-62
2022/08/22 10:18:03;;;;;;;2.77;2.03;;;22.50;99.90;;;;;;5099409;28;20485;-59
2022/08/22 10:20:36;;;;;;;3.50;1.77;;;22.60;99.90;;;;;;5104853;28;20450;-59
2022/08/22 10:23:14;;;;;;;5.97;2.17;;;22.70;99.90;;;;;;5108585;28;20488;-59
2022/08/22 10:25:43;;;;;;;2.90;1.60;;;22.70;99.90;;;;;;5109133;28;20537;-58
2022/08/22 10:28:19;;;;;;;3.40;2.00;;;22.80;99.90;;;;;;5107829;28;20449;-58
2022/08/22 10:31:06;;;;;;;3.37;1.70;;;22.60;99.90;;;;;;5108284;28;20446;-58
2022/08/22 10:33:36;;;;;;;7.70;2.83;;;22.40;99.90;;;;;;5100262;28;20449;-56
2022/08/22 10:36:09;;;;;;;3.80;1.93;;;22.60;99.90;;;;;;5109166;28;20473;-57
2022/08/22 10:38:42;;;;;;;2.87;2.00;;;22.60;99.90;;;;;;5112944;28;20544;-59
2022/08/22 10:41:14;;;;;;;1.73;1.50;;;22.60;99.90;;;;;;5113467;28;20445;-58
2022/08/22 10:43:48;;;;;;;6.00;1.90;;;22.50;99.90;;;;;;5109566;28;20494;-58
2022/08/22 10:46:20;;;;;;;2.80;1.83;;;22.50;99.90;;;;;;5107619;28;20190;-57
2022/08/22 10:48:50;;;;;;;2.43;1.90;;;22.60;99.90;;;;;;5100505;28;20481;-58
2022/08/22 10:51:31;;;;;;;5.90;2.37;;;22.50;99.90;;;;;;5100103;28;20455;-59
2022/08/22 10:54:24;;;;;;;18.93;2.93;;;22.50;99.90;;;;;;5098346;28;20759;-58
2022/08/22 10:56:56;;;;;;;4.10;1.90;;;22.90;99.90;;;;;;5082426;28;20442;-57
2022/08/22 10:59:35;;;;;;;1.90;1.47;;;22.90;99.90;;;;;;5100772;28;20445;-58
2022/08/22 11:02:14;;;;;;;2.27;2.03;;;22.70;99.90;;;;;;5101461;28;20450;-60
2022/08/22 11:05:06;;;;;;;3.80;1.90;;;22.70;99.90;;;;;;5097362;28;20475;-60
2022/08/22 11:07:46;;;;;;;2.10;1.73;;;22.40;99.90;;;;;;5098221;28;20499;-60
2022/08/22 11:10:26;;;;;;;3.50;1.53;;;22.60;99.90;;;;;;5096597;28;20478;-60
2022/08/22 11:13:05;;;;;;;2.63;2.00;;;22.50;99.90;;;;;;5106714;28;20445;-59
2022/08/22 11:15:58;;;;;;;4.20;1.70;;;22.70;99.90;;;;;;5111161;27;20449;-59
2022/08/22 11:18:43;;;;;;;3.53;1.70;;;23.00;99.90;;;;;;5109988;28;20442;-63
2022/08/22 11:21:16;;;;;;;2.57;1.63;;;22.90;99.90;;;;;;5099489;28;20454;-59
2022/08/22 11:23:47;;;;;;;3.60;1.80;;;22.90;99.90;;;;;;5095995;28;20482;-59
2022/08/22 11:26:28;;;;;;;2.23;1.70;;;23.00;99.90;;;;;;5115320;28;20540;-59
2022/08/22 11:29:03;;;;;;;6.43;2.60;;;23.30;99.90;;;;;;5096152;28;20875;-61
2022/08/22 11:31:46;;;;;;;3.30;1.80;;;23.30;99.90;;;;;;5095833;28;20460;-60
2022/08/22 11:34:20;;;;;;;4.00;1.87;;;23.10;99.90;;;;;;5096086;28;20450;-59
2022/08/22 11:36:51;;;;;;;5.20;2.17;;;23.20;99.90;;;;;;5095920;28;20450;-59
2022/08/22 11:39:24;;;;;;;4.93;1.97;;;23.20;99.90;;;;;;5100851;28;20545;-59
2022/08/22 11:42:01;;;;;;;5.70;1.63;;;23.20;99.90;;;;;;5112505;28;20452;-59
2022/08/22 11:44:31;;;;;;;3.33;1.40;;;23.60;99.90;;;;;;5108848;27;20512;-59
2022/08/22 11:47:01;;;;;;;2.70;1.83;;;23.80;99.90;;;;;;5095374;28;20517;-58
2022/08/22 11:49:39;;;;;;;2.50;1.80;;;24.10;99.90;;;;;;5100625;28;21052;-61
2022/08/22 11:52:20;;;;;;;2.50;1.70;;;24.10;99.90;;;;;;5095333;28;20967;-61
2022/08/22 11:55:18;;;;;;;4.23;1.80;;;24.50;99.90;;;;;;5095729;28;20465;-61
2022/08/22 11:57:49;;;;;;;3.20;1.50;;;24.40;99.90;;;;;;5095471;28;20472;-61
2022/08/22 12:00:27;;;;;;;1.77;1.53;;;24.50;99.90;;;;;;5096482;28;20482;-61
2022/08/22 12:03:14;;;;;;;2.63;1.63;;;24.60;99.90;;;;;;5115813;28;20473;-61
2022/08/22 12:05:46;;;;;;;2.50;1.53;;;24.30;99.90;;;;;;5117836;27;20445;-61
2022/08/22 12:08:17;;;;;;;1.93;1.70;;;24.40;99.90;;;;;;5097745;27;20457;-60
2022/08/22 12:10:52;;;;;;;3.40;1.80;;;24.10;99.90;;;;;;5095200;28;20454;-58
2022/08/22 12:13:35;;;;;;;3.10;1.73;;;24.30;99.90;;;;;;5095322;28;20809;-58
2022/08/22 12:16:10;;;;;;;4.03;1.83;;;23.80;99.90;;;;;;5115334;28;20782;-59
2022/08/22 12:18:49;;;;;;;2.80;2.00;;;23.70;99.90;;;;;;5103776;28;21006;-60
2022/08/22 12:21:36;;;;;;;6.13;1.80;;;23.60;99.90;;;;;;5103675;28;20567;-57
2022/08/22 12:24:25;;;;;;;3.30;1.90;;;23.60;99.90;;;;;;5094687;28;20482;-60
2022/08/22 12:27:17;;;;;;;2.90;1.63;;;23.70;99.90;;;;;;5094450;28;20537;-59
2022/08/22 12:30:02;;;;;;;4.70;1.97;;;23.90;99.90;;;;;;5095144;28;20455;-60
2022/08/22 12:33:01;;;;;;;3.50;1.77;;;23.50;99.90;;;;;;5094800;28;20458;-60
2022/08/22 12:35:37;;;;;;;3.23;1.47;;;23.40;99.90;;;;;;5094507;28;20483;-58
2022/08/22 12:38:21;;;;;;;3.47;2.13;;;23.60;99.90;;;;;;5094743;28;20538;-58
2022/08/22 12:41:02;;;;;;;3.87;1.90;;;23.70;99.90;;;;;;5094819;28;20453;-59
2022/08/22 12:43:43;;;;;;;4.93;2.20;;;23.80;99.90;;;;;;5094685;28;20569;-59
2022/08/22 12:46:16;;;;;;;1.80;1.70;;;23.80;99.90;;;;;;5095078;28;20888;-58
2022/08/22 12:49:03;;;;;;;5.63;1.60;;;23.90;99.90;;;;;;5093206;28;20488;-59
2022/08/22 12:51:36;;;;;;;1.63;1.20;;;24.10;99.90;;;;;;5080060;28;20537;-59
2022/08/22 12:54:47;;;;;;;3.63;1.43;;;24.20;99.90;;;;;;5094317;28;20450;-60
2022/08/22 12:57:26;;;;;;;3.70;1.40;;;24.00;99.90;;;;;;5114427;28;20536;-60
2022/08/22 12:59:58;;;;;;;7.23;1.80;;;23.90;99.90;;;;;;5102108;28;20523;-60
2022/08/22 13:02:29;;;;;;;2.73;1.93;;;23.50;99.90;;;;;;5108889;27;20449;-61
2022/08/22 13:04:58;;;;;;;4.60;1.60;;;23.40;99.90;;;;;;5093868;28;20474;-60
2022/08/22 13:07:29;;;;;;;3.93;2.17;;;23.80;99.90;;;;;;5093152;28;20569;-59
2022/08/22 13:10:00;;;;;;;2.50;1.57;;;23.80;99.90;;;;;;5094364;28;20447;-59
2022/08/22 13:12:31;;;;;;;2.60;1.93;;;23.70;99.90;;;;;;5093654;28;20512;-59
2022/08/22 13:15:10;;;;;;;4.73;1.97;;;23.50;99.90;;;;;;5093272;28;20458;-61
2022/08/22 13:17:42;;;;;;;6.70;1.63;;;23.40;99.90;;;;;;5094140;28;20457;-61
2022/08/22 13:20:13;;;;;;;3.63;2.33;;;23.30;99.90;;;;;;5093872;28;20542;-61
2022/08/22 13:22:42;;;;;;;1.63;1.53;;;23.40;99.90;;;;;;5093702;28;20454;-60
2022/08/22 13:25:18;;;;;;;3.30;1.80;;;23.50;99.90;;;;;;5104360;28;20478;-60
2022/08/22 13:27:48;;;;;;;1.60;1.50;;;23.70;99.90;;;;;;5107004;28;20453;-60
2022/08/22 13:30:20;;;;;;;3.50;1.57;;;23.80;99.90;;;;;;5113039;28;20442;-62
2022/08/22 13:32:50;;;;;;;3.37;1.60;;;23.90;99.90;;;;;;5103728;28;20497;-63
2022/08/22 13:35:24;;;;;;;1.87;1.67;;;23.60;99.90;;;;;;5091927;28;20456;-63
2022/08/22 13:37:53;;;;;;;1.67;1.57;;;23.70;99.90;;;;;;5091912;28;20446;-63
2022/08/22 13:40:25;;;;;;;4.00;1.93;;;23.70;99.90;;;;;;5093854;28;20541;-63
2022/08/22 13:43:01;;;;;;;2.73;1.87;;;23.80;99.90;;;;;;5093067;28;20580;-63